West Galveston, Texas
Current Conditions -  °F | °C
As of 7:52 AM on Thursday 30 Oct 2014 (Local Time) from KGLS Reporting Station
Clear Clear  
Wind Chill: 68°   Ceiling: Unl
Heat Index: 68°   Visibility: 10mi
Dew Point: 60°   Wind: 10mph
Humidity: 76%   Direction: 50°NE
Pressure: 30.1"   Gusts: NA
Location:  29.2029°N, 94.9576°W
Report Text: KGLS 301252Z 05009KT 10SM CLR 20/16 A3010 RMK AO2 SLP193 T02000156
Loading
Personal Weather Stations






























Interactive Weather Map New forecast layout! Learn more

10-Day Weather Forecast

Advertisements
Track Severe Weather on mobile